North Platte, Nebraska
Current Conditions -  °F | °C
As of 5:53 PM on Monday 20 Oct 2014 (Local Time) from KLBF Reporting Station
Clear Clear  
Wind Chill: 23°   Ceiling: Unl
Heat Index: 23°   Visibility: 10mi
Dew Point:   Wind: 8mph
Humidity: 29%   Direction: 170°S
Pressure: 30.04"   Gusts: NA
Location:  41.14°N, 100.76°W
Report Text: KLBF 202253Z AUTO 17007KT 10SM CLR 23/04 A3004 RMK AO2 SLP167 T02330044
Loading
Personal Weather Stations






























Interactive Weather Map New forecast layout! Learn more

10-Day Weather Forecast

Advertisements
Track Severe Weather on mobile